sensor_id;sensor_type;location;lat;lon;timestamp;P1;durP1;ratioP1;P2;durP2;ratioP2
16270;SDS011;8243;49.048;8.396;2023-07-13T00:01:27;6.27;;;4.10;;
16270;SDS011;8243;49.048;8.396;2023-07-13T00:03:53;4.97;;;4.57;;
16270;SDS011;8243;49.048;8.396;2023-07-13T00:06:19;5.40;;;5.10;;
16270;SDS011;8243;49.048;8.396;2023-07-13T00:08:45;6.50;;;5.17;;
16270;SDS011;8243;49.048;8.396;2023-07-13T00:11:12;5.77;;;5.27;;
16270;SDS011;8243;49.048;8.396;2023-07-13T00:13:38;7.87;;;7.10;;
16270;SDS011;8243;49.048;8.396;2023-07-13T00:16:04;8.10;;;6.57;;
16270;SDS011;8243;49.048;8.396;2023-07-13T00:18:30;7.10;;;6.60;;
16270;SDS011;8243;49.048;8.396;2023-07-13T00:20:56;7.23;;;6.73;;
16270;SDS011;8243;49.048;8.396;2023-07-13T00:23:31;8.00;;;7.50;;
16270;SDS011;8243;49.048;8.396;2023-07-13T00:25:58;11.13;;;10.33;;
16270;SDS011;8243;49.048;8.396;2023-07-13T00:28:25;10.43;;;9.73;;
16270;SDS011;8243;49.048;8.396;2023-07-13T00:30:50;12.37;;;11.63;;
16270;SDS011;8243;49.048;8.396;2023-07-13T00:33:16;9.57;;;7.73;;
16270;SDS011;8243;49.048;8.396;2023-07-13T00:35:41;8.00;;;7.47;;
16270;SDS011;8243;49.048;8.396;2023-07-13T00:38:08;5.33;;;4.97;;
16270;SDS011;8243;49.048;8.396;2023-07-13T00:40:34;6.87;;;6.43;;
16270;SDS011;8243;49.048;8.396;2023-07-13T00:43:00;7.13;;;5.93;;
16270;SDS011;8243;49.048;8.396;2023-07-13T00:47:53;3.43;;;3.00;;
16270;SDS011;8243;49.048;8.396;2023-07-13T00:50:20;4.70;;;2.63;;
16270;SDS011;8243;49.048;8.396;2023-07-13T00:52:48;3.87;;;2.80;;
16270;SDS011;8243;49.048;8.396;2023-07-13T00:55:16;3.33;;;3.03;;
16270;SDS011;8243;49.048;8.396;2023-07-13T00:57:43;4.37;;;3.10;;
16270;SDS011;8243;49.048;8.396;2023-07-13T01:00:09;3.37;;;2.97;;
16270;SDS011;8243;49.048;8.396;2023-07-13T01:02:37;5.17;;;3.03;;
16270;SDS011;8243;49.048;8.396;2023-07-13T01:05:09;4.30;;;2.93;;
16270;SDS011;8243;49.048;8.396;2023-07-13T01:07:39;3.47;;;2.93;;
16270;SDS011;8243;49.048;8.396;2023-07-13T01:10:07;3.87;;;2.67;;
16270;SDS011;8243;49.048;8.396;2023-07-13T01:12:33;5.57;;;2.80;;
16270;SDS011;8243;49.048;8.396;2023-07-13T01:14:59;3.17;;;2.90;;
16270;SDS011;8243;49.048;8.396;2023-07-13T01:17:27;3.47;;;2.40;;
16270;SDS011;8243;49.048;8.396;2023-07-13T01:19:53;4.80;;;2.70;;
16270;SDS011;8243;49.048;8.396;2023-07-13T01:22:19;4.97;;;2.40;;
16270;SDS011;8243;49.048;8.396;2023-07-13T01:24:50;5.77;;;1.90;;
16270;SDS011;8243;49.048;8.396;2023-07-13T01:27:17;4.43;;;2.13;;
16270;SDS011;8243;49.048;8.396;2023-07-13T01:29:46;2.53;;;1.90;;
16270;SDS011;8243;49.048;8.396;2023-07-13T01:32:16;4.13;;;2.10;;
16270;SDS011;8243;49.048;8.396;2023-07-13T01:34:49;2.57;;;2.10;;
16270;SDS011;8243;49.048;8.396;2023-07-13T01:37:21;2.17;;;1.90;;
16270;SDS011;8243;49.048;8.396;2023-07-13T01:39:48;5.53;;;2.03;;
16270;SDS011;8243;49.048;8.396;2023-07-13T01:42:14;4.47;;;2.00;;
16270;SDS011;8243;49.048;8.396;2023-07-13T01:44:40;6.13;;;2.30;;
16270;SDS011;8243;49.048;8.396;2023-07-13T01:47:06;3.63;;;2.27;;
16270;SDS011;8243;49.048;8.396;2023-07-13T01:49:31;4.80;;;2.40;;
16270;SDS011;8243;49.048;8.396;2023-07-13T01:51:57;2.63;;;2.40;;
16270;SDS011;8243;49.048;8.396;2023-07-13T01:54:22;2.50;;;2.00;;
16270;SDS011;8243;49.048;8.396;2023-07-13T01:56:48;4.20;;;2.30;;
16270;SDS011;8243;49.048;8.396;2023-07-13T01:59:13;3.80;;;2.50;;
16270;SDS011;8243;49.048;8.396;2023-07-13T02:01:39;2.67;;;1.97;;
16270;SDS011;8243;49.048;8.396;2023-07-13T02:04:05;4.60;;;2.50;;
16270;SDS011;8243;49.048;8.396;2023-07-13T02:06:30;3.90;;;2.00;;
16270;SDS011;8243;49.048;8.396;2023-07-13T02:08:57;3.47;;;2.30;;
16270;SDS011;8243;49.048;8.396;2023-07-13T02:11:22;4.07;;;2.10;;
16270;SDS011;8243;49.048;8.396;2023-07-13T02:13:48;3.27;;;2.47;;
16270;SDS011;8243;49.048;8.396;2023-07-13T02:16:14;2.47;;;2.10;;
16270;SDS011;8243;49.048;8.396;2023-07-13T02:18:39;6.37;;;2.60;;
16270;SDS011;8243;49.048;8.396;2023-07-13T02:21:05;2.63;;;2.33;;
16270;SDS011;8243;49.048;8.396;2023-07-13T02:23:31;3.23;;;2.20;;
16270;SDS011;8243;49.048;8.396;2023-07-13T02:25:57;4.57;;;2.17;;
16270;SDS011;8243;49.048;8.396;2023-07-13T02:28:23;4.80;;;2.57;;
16270;SDS011;8243;49.048;8.396;2023-07-13T02:30:49;3.73;;;2.03;;
16270;SDS011;8243;49.048;8.396;2023-07-13T02:33:15;3.67;;;2.47;;
16270;SDS011;8243;49.048;8.396;2023-07-13T02:35:41;2.70;;;2.23;;
16270;SDS011;8243;49.048;8.396;2023-07-13T02:38:07;4.17;;;2.47;;
16270;SDS011;8243;49.048;8.396;2023-07-13T02:40:34;4.07;;;2.40;;
16270;SDS011;8243;49.048;8.396;2023-07-13T02:43:00;3.40;;;2.20;;
16270;SDS011;8243;49.048;8.396;2023-07-13T02:45:27;7.00;;;2.80;;
16270;SDS011;8243;49.048;8.396;2023-07-13T02:47:52;5.10;;;2.33;;
16270;SDS011;8243;49.048;8.396;2023-07-13T02:50:18;2.70;;;2.50;;
16270;SDS011;8243;49.048;8.396;2023-07-13T02:52:44;3.40;;;2.37;;
16270;SDS011;8243;49.048;8.396;2023-07-13T02:55:09;4.93;;;2.47;;
16270;SDS011;8243;49.048;8.396;2023-07-13T02:57:35;3.23;;;2.10;;
16270;SDS011;8243;49.048;8.396;2023-07-13T03:00:02;6.30;;;2.63;;
16270;SDS011;8243;49.048;8.396;2023-07-13T03:02:32;3.07;;;2.40;;
16270;SDS011;8243;49.048;8.396;2023-07-13T03:04:58;4.50;;;2.70;;
16270;SDS011;8243;49.048;8.396;2023-07-13T03:07:24;3.67;;;2.57;;
16270;SDS011;8243;49.048;8.396;2023-07-13T03:09:53;3.57;;;2.20;;
16270;SDS011;8243;49.048;8.396;2023-07-13T03:12:22;6.73;;;2.40;;
16270;SDS011;8243;49.048;8.396;2023-07-13T03:14:48;2.07;;;1.90;;
16270;SDS011;8243;49.048;8.396;2023-07-13T03:17:14;4.03;;;2.67;;
16270;SDS011;8243;49.048;8.396;2023-07-13T03:19:39;3.17;;;2.03;;
16270;SDS011;8243;49.048;8.396;2023-07-13T03:22:05;4.23;;;2.50;;
16270;SDS011;8243;49.048;8.396;2023-07-13T03:24:32;6.27;;;2.63;;
16270;SDS011;8243;49.048;8.396;2023-07-13T03:27:00;2.70;;;2.23;;
16270;SDS011;8243;49.048;8.396;2023-07-13T03:29:26;4.97;;;2.83;;
16270;SDS011;8243;49.048;8.396;2023-07-13T03:31:52;3.23;;;2.90;;
16270;SDS011;8243;49.048;8.396;2023-07-13T03:34:18;4.97;;;2.53;;
16270;SDS011;8243;49.048;8.396;2023-07-13T03:36:43;3.37;;;2.50;;
16270;SDS011;8243;49.048;8.396;2023-07-13T03:39:09;4.07;;;2.73;;
16270;SDS011;8243;49.048;8.396;2023-07-13T03:41:34;3.40;;;2.63;;
16270;SDS011;8243;49.048;8.396;2023-07-13T03:44:00;4.07;;;2.90;;
16270;SDS011;8243;49.048;8.396;2023-07-13T03:46:26;4.67;;;2.60;;
16270;SDS011;8243;49.048;8.396;2023-07-13T03:48:52;3.90;;;2.67;;
16270;SDS011;8243;49.048;8.396;2023-07-13T03:51:18;3.27;;;2.50;;
16270;SDS011;8243;49.048;8.396;2023-07-13T03:53:45;4.63;;;2.60;;
16270;SDS011;8243;49.048;8.396;2023-07-13T03:56:12;3.77;;;2.20;;
16270;SDS011;8243;49.048;8.396;2023-07-13T03:58:43;4.17;;;2.30;;
16270;SDS011;8243;49.048;8.396;2023-07-13T04:01:11;5.43;;;2.87;;
16270;SDS011;8243;49.048;8.396;2023-07-13T04:03:38;4.77;;;2.20;;
16270;SDS011;8243;49.048;8.396;2023-07-13T04:06:04;5.77;;;2.80;;
16270;SDS011;8243;49.048;8.396;2023-07-13T04:08:32;8.63;;;2.90;;
16270;SDS011;8243;49.048;8.396;2023-07-13T04:11:00;3.40;;;2.40;;
16270;SDS011;8243;49.048;8.396;2023-07-13T04:13:28;2.37;;;2.27;;
16270;SDS011;8243;49.048;8.396;2023-07-13T04:15:54;2.93;;;2.63;;
16270;SDS011;8243;49.048;8.396;2023-07-13T04:18:20;2.40;;;2.27;;
16270;SDS011;8243;49.048;8.396;2023-07-13T04:20:47;2.63;;;2.40;;
16270;SDS011;8243;49.048;8.396;2023-07-13T04:23:13;3.73;;;2.37;;
16270;SDS011;8243;49.048;8.396;2023-07-13T04:25:39;4.30;;;2.10;;
16270;SDS011;8243;49.048;8.396;2023-07-13T04:28:08;3.00;;;2.20;;
16270;SDS011;8243;49.048;8.396;2023-07-13T04:30:33;4.33;;;2.00;;
16270;SDS011;8243;49.048;8.396;2023-07-13T04:32:59;3.97;;;2.03;;
16270;SDS011;8243;49.048;8.396;2023-07-13T04:35:25;3.63;;;1.83;;
16270;SDS011;8243;49.048;8.396;2023-07-13T04:37:50;3.63;;;2.10;;
16270;SDS011;8243;49.048;8.396;2023-07-13T04:40:17;4.90;;;2.17;;
16270;SDS011;8243;49.048;8.396;2023-07-13T04:42:43;4.53;;;2.00;;
16270;SDS011;8243;49.048;8.396;2023-07-13T04:45:09;4.40;;;2.10;;
16270;SDS011;8243;49.048;8.396;2023-07-13T04:47:35;4.50;;;1.93;;
16270;SDS011;8243;49.048;8.396;2023-07-13T04:50:01;3.90;;;2.10;;
16270;SDS011;8243;49.048;8.396;2023-07-13T04:52:27;2.20;;;1.80;;
16270;SDS011;8243;49.048;8.396;2023-07-13T04:54:52;3.47;;;1.70;;
16270;SDS011;8243;49.048;8.396;2023-07-13T04:57:18;5.73;;;2.13;;
16270;SDS011;8243;49.048;8.396;2023-07-13T04:59:43;1.83;;;1.63;;
16270;SDS011;8243;49.048;8.396;2023-07-13T05:02:09;2.07;;;1.87;;
16270;SDS011;8243;49.048;8.396;2023-07-13T05:04:35;3.20;;;2.13;;
16270;SDS011;8243;49.048;8.396;2023-07-13T05:07:01;6.60;;;2.10;;
16270;SDS011;8243;49.048;8.396;2023-07-13T05:09:26;5.83;;;2.37;;
16270;SDS011;8243;49.048;8.396;2023-07-13T05:11:52;5.53;;;2.27;;
16270;SDS011;8243;49.048;8.396;2023-07-13T05:14:17;3.03;;;2.10;;
16270;SDS011;8243;49.048;8.396;2023-07-13T05:16:43;3.47;;;1.97;;
16270;SDS011;8243;49.048;8.396;2023-07-13T05:19:09;3.80;;;2.20;;
16270;SDS011;8243;49.048;8.396;2023-07-13T05:21:35;4.97;;;2.17;;
16270;SDS011;8243;49.048;8.396;2023-07-13T05:24:01;5.30;;;2.20;;
16270;SDS011;8243;49.048;8.396;2023-07-13T05:26:26;4.53;;;2.07;;
16270;SDS011;8243;49.048;8.396;2023-07-13T05:28:52;5.17;;;2.23;;
16270;SDS011;8243;49.048;8.396;2023-07-13T05:31:18;3.73;;;2.40;;
16270;SDS011;8243;49.048;8.396;2023-07-13T05:33:43;3.17;;;2.37;;
16270;SDS011;8243;49.048;8.396;2023-07-13T05:36:09;5.43;;;2.10;;
16270;SDS011;8243;49.048;8.396;2023-07-13T05:38:35;3.00;;;1.80;;
16270;SDS011;8243;49.048;8.396;2023-07-13T05:41:00;5.77;;;2.20;;
16270;SDS011;8243;49.048;8.396;2023-07-13T05:43:26;5.53;;;1.90;;
16270;SDS011;8243;49.048;8.396;2023-07-13T05:45:55;3.83;;;1.80;;
16270;SDS011;8243;49.048;8.396;2023-07-13T05:48:21;6.20;;;2.10;;
16270;SDS011;8243;49.048;8.396;2023-07-13T05:50:47;4.67;;;1.53;;
16270;SDS011;8243;49.048;8.396;2023-07-13T05:53:13;4.67;;;1.90;;
16270;SDS011;8243;49.048;8.396;2023-07-13T05:55:45;6.03;;;1.97;;
16270;SDS011;8243;49.048;8.396;2023-07-13T05:58:12;5.67;;;1.63;;
16270;SDS011;8243;49.048;8.396;2023-07-13T06:00:38;4.10;;;1.77;;
16270;SDS011;8243;49.048;8.396;2023-07-13T06:03:04;2.83;;;1.70;;
16270;SDS011;8243;49.048;8.396;2023-07-13T06:05:31;2.00;;;1.47;;
16270;SDS011;8243;49.048;8.396;2023-07-13T06:07:58;6.33;;;1.90;;
16270;SDS011;8243;49.048;8.396;2023-07-13T06:10:26;5.20;;;1.87;;
16270;SDS011;8243;49.048;8.396;2023-07-13T06:12:52;2.40;;;1.50;;
16270;SDS011;8243;49.048;8.396;2023-07-13T06:15:17;5.53;;;2.03;;
16270;SDS011;8243;49.048;8.396;2023-07-13T06:17:44;5.37;;;1.60;;
16270;SDS011;8243;49.048;8.396;2023-07-13T06:20:10;3.83;;;1.50;;
16270;SDS011;8243;49.048;8.396;2023-07-13T06:22:37;9.17;;;1.70;;
16270;SDS011;8243;49.048;8.396;2023-07-13T06:25:04;2.60;;;1.40;;
16270;SDS011;8243;49.048;8.396;2023-07-13T06:27:30;5.90;;;1.60;;
16270;SDS011;8243;49.048;8.396;2023-07-13T06:29:56;5.23;;;1.63;;
16270;SDS011;8243;49.048;8.396;2023-07-13T06:32:21;3.23;;;1.37;;
16270;SDS011;8243;49.048;8.396;2023-07-13T06:34:48;5.33;;;1.50;;
16270;SDS011;8243;49.048;8.396;2023-07-13T06:37:15;3.17;;;1.50;;
16270;SDS011;8243;49.048;8.396;2023-07-13T06:39:41;4.83;;;1.83;;
16270;SDS011;8243;49.048;8.396;2023-07-13T06:42:06;3.47;;;1.50;;
16270;SDS011;8243;49.048;8.396;2023-07-13T06:44:32;3.00;;;1.83;;
16270;SDS011;8243;49.048;8.396;2023-07-13T06:46:57;3.20;;;1.57;;
16270;SDS011;8243;49.048;8.396;2023-07-13T06:49:23;3.20;;;1.70;;
16270;SDS011;8243;49.048;8.396;2023-07-13T06:51:49;5.77;;;2.03;;
16270;SDS011;8243;49.048;8.396;2023-07-13T06:54:14;2.93;;;1.37;;
16270;SDS011;8243;49.048;8.396;2023-07-13T06:56:41;6.57;;;1.70;;
16270;SDS011;8243;49.048;8.396;2023-07-13T06:59:07;3.87;;;1.80;;
16270;SDS011;8243;49.048;8.396;2023-07-13T07:01:33;3.50;;;1.90;;
16270;SDS011;8243;49.048;8.396;2023-07-13T07:03:59;5.37;;;1.63;;
16270;SDS011;8243;49.048;8.396;2023-07-13T07:06:24;5.60;;;1.50;;
16270;SDS011;8243;49.048;8.396;2023-07-13T07:08:51;3.13;;;1.40;;
16270;SDS011;8243;49.048;8.396;2023-07-13T07:11:21;4.80;;;1.53;;
16270;SDS011;8243;49.048;8.396;2023-07-13T07:13:50;2.97;;;1.60;;
16270;SDS011;8243;49.048;8.396;2023-07-13T07:16:17;3.63;;;1.43;;
16270;SDS011;8243;49.048;8.396;2023-07-13T07:18:43;3.10;;;1.60;;
16270;SDS011;8243;49.048;8.396;2023-07-13T07:21:09;3.23;;;1.80;;
16270;SDS011;8243;49.048;8.396;2023-07-13T07:23:35;2.43;;;1.33;;
16270;SDS011;8243;49.048;8.396;2023-07-13T07:26:01;5.27;;;1.67;;
16270;SDS011;8243;49.048;8.396;2023-07-13T07:28:27;5.17;;;1.43;;
16270;SDS011;8243;49.048;8.396;2023-07-13T07:30:56;4.97;;;1.50;;
16270;SDS011;8243;49.048;8.396;2023-07-13T07:33:23;6.10;;;1.63;;
16270;SDS011;8243;49.048;8.396;2023-07-13T07:35:50;3.73;;;1.50;;
16270;SDS011;8243;49.048;8.396;2023-07-13T07:38:16;3.67;;;1.47;;
16270;SDS011;8243;49.048;8.396;2023-07-13T07:40:42;3.40;;;1.47;;
16270;SDS011;8243;49.048;8.396;2023-07-13T07:43:08;2.67;;;1.37;;
16270;SDS011;8243;49.048;8.396;2023-07-13T07:45:34;2.43;;;1.50;;
16270;SDS011;8243;49.048;8.396;2023-07-13T07:48:00;4.97;;;1.50;;
16270;SDS011;8243;49.048;8.396;2023-07-13T07:50:26;2.13;;;1.60;;
16270;SDS011;8243;49.048;8.396;2023-07-13T07:52:52;2.83;;;1.70;;
16270;SDS011;8243;49.048;8.396;2023-07-13T07:55:18;2.10;;;1.33;;
16270;SDS011;8243;49.048;8.396;2023-07-13T07:57:44;3.53;;;1.77;;
16270;SDS011;8243;49.048;8.396;2023-07-13T08:00:09;7.50;;;1.60;;
16270;SDS011;8243;49.048;8.396;2023-07-13T08:06:05;3.37;;;1.50;;
16270;SDS011;8243;49.048;8.396;2023-07-13T08:08:31;4.90;;;2.07;;
16270;SDS011;8243;49.048;8.396;2023-07-13T08:10:56;3.33;;;1.40;;
16270;SDS011;8243;49.048;8.396;2023-07-13T08:13:22;4.80;;;1.67;;
16270;SDS011;8243;49.048;8.396;2023-07-13T08:15:47;3.50;;;1.40;;
16270;SDS011;8243;49.048;8.396;2023-07-13T08:18:14;3.57;;;1.37;;
16270;SDS011;8243;49.048;8.396;2023-07-13T08:20:40;2.30;;;1.03;;
16270;SDS011;8243;49.048;8.396;2023-07-13T08:23:06;2.57;;;1.60;;
16270;SDS011;8243;49.048;8.396;2023-07-13T08:25:34;3.70;;;1.87;;
16270;SDS011;8243;49.048;8.396;2023-07-13T08:27:59;5.30;;;1.93;;
16270;SDS011;8243;49.048;8.396;2023-07-13T08:30:25;3.87;;;1.40;;
16270;SDS011;8243;49.048;8.396;2023-07-13T08:32:51;3.73;;;1.40;;
16270;SDS011;8243;49.048;8.396;2023-07-13T08:35:17;1.10;;;1.10;;
16270;SDS011;8243;49.048;8.396;2023-07-13T08:37:43;2.40;;;1.40;;
16270;SDS011;8243;49.048;8.396;2023-07-13T08:40:09;4.17;;;1.60;;
16270;SDS011;8243;49.048;8.396;2023-07-13T08:42:37;2.17;;;1.40;;
16270;SDS011;8243;49.048;8.396;2023-07-13T08:45:23;3.43;;;1.30;;
16270;SDS011;8243;49.048;8.396;2023-07-13T08:48:11;7.37;;;1.50;;
16270;SDS011;8243;49.048;8.396;2023-07-13T08:51:00;3.83;;;1.20;;
16270;SDS011;8243;49.048;8.396;2023-07-13T08:53:36;3.67;;;1.50;;
16270;SDS011;8243;49.048;8.396;2023-07-13T08:56:09;3.50;;;1.20;;
16270;SDS011;8243;49.048;8.396;2023-07-13T08:58:41;2.67;;;1.43;;
16270;SDS011;8243;49.048;8.396;2023-07-13T09:01:15;4.40;;;1.43;;
16270;SDS011;8243;49.048;8.396;2023-07-13T09:04:14;2.77;;;1.20;;
16270;SDS011;8243;49.048;8.396;2023-07-13T09:06:49;3.13;;;1.27;;
16270;SDS011;8243;49.048;8.396;2023-07-13T09:09:32;3.73;;;1.67;;
16270;SDS011;8243;49.048;8.396;2023-07-13T09:15:21;3.20;;;1.50;;
16270;SDS011;8243;49.048;8.396;2023-07-13T09:17:55;3.40;;;1.40;;
16270;SDS011;8243;49.048;8.396;2023-07-13T09:20:31;2.37;;;1.40;;
16270;SDS011;8243;49.048;8.396;2023-07-13T09:23:30;5.23;;;1.37;;
16270;SDS011;8243;49.048;8.396;2023-07-13T09:26:01;3.43;;;1.60;;
16270;SDS011;8243;49.048;8.396;2023-07-13T09:28:41;4.00;;;1.80;;
16270;SDS011;8243;49.048;8.396;2023-07-13T09:31:11;3.77;;;1.53;;
16270;SDS011;8243;49.048;8.396;2023-07-13T09:33:38;3.53;;;1.43;;
16270;SDS011;8243;49.048;8.396;2023-07-13T09:38:58;2.53;;;1.30;;
16270;SDS011;8243;49.048;8.396;2023-07-13T09:44:09;4.07;;;1.50;;
16270;SDS011;8243;49.048;8.396;2023-07-13T09:46:40;3.93;;;1.50;;
16270;SDS011;8243;49.048;8.396;2023-07-13T09:49:18;5.03;;;1.50;;
16270;SDS011;8243;49.048;8.396;2023-07-13T09:52:10;2.40;;;1.70;;
16270;SDS011;8243;49.048;8.396;2023-07-13T09:54:37;3.87;;;1.40;;
16270;SDS011;8243;49.048;8.396;2023-07-13T09:57:04;3.03;;;1.20;;
16270;SDS011;8243;49.048;8.396;2023-07-13T09:59:42;2.47;;;1.20;;
16270;SDS011;8243;49.048;8.396;2023-07-13T10:04:55;2.53;;;1.53;;
16270;SDS011;8243;49.048;8.396;2023-07-13T10:07:31;2.47;;;1.43;;
16270;SDS011;8243;49.048;8.396;2023-07-13T10:10:02;3.13;;;1.47;;
16270;SDS011;8243;49.048;8.396;2023-07-13T10:12:29;5.80;;;1.60;;
16270;SDS011;8243;49.048;8.396;2023-07-13T10:15:00;3.77;;;1.47;;
16270;SDS011;8243;49.048;8.396;2023-07-13T10:17:28;2.77;;;1.47;;
16270;SDS011;8243;49.048;8.396;2023-07-13T10:19:56;3.33;;;1.37;;
16270;SDS011;8243;49.048;8.396;2023-07-13T10:22:31;3.53;;;1.53;;
16270;SDS011;8243;49.048;8.396;2023-07-13T10:25:13;2.37;;;1.20;;
16270;SDS011;8243;49.048;8.396;2023-07-13T10:27:47;3.33;;;1.30;;
16270;SDS011;8243;49.048;8.396;2023-07-13T10:30:25;3.60;;;1.40;;
16270;SDS011;8243;49.048;8.396;2023-07-13T10:32:57;4.90;;;1.67;;
16270;SDS011;8243;49.048;8.396;2023-07-13T10:35:24;3.33;;;1.60;;
16270;SDS011;8243;49.048;8.396;2023-07-13T10:37:55;4.63;;;1.70;;
16270;SDS011;8243;49.048;8.396;2023-07-13T10:40:27;3.50;;;1.47;;
16270;SDS011;8243;49.048;8.396;2023-07-13T10:42:59;3.27;;;1.27;;
16270;SDS011;8243;49.048;8.396;2023-07-13T10:45:28;5.50;;;1.83;;
16270;SDS011;8243;49.048;8.396;2023-07-13T10:47:56;5.37;;;1.63;;
16270;SDS011;8243;49.048;8.396;2023-07-13T10:50:23;2.73;;;1.53;;
16270;SDS011;8243;49.048;8.396;2023-07-13T10:52:51;1.90;;;1.20;;
16270;SDS011;8243;49.048;8.396;2023-07-13T10:55:33;4.73;;;1.60;;
16270;SDS011;8243;49.048;8.396;2023-07-13T11:03:33;4.40;;;1.30;;
16270;SDS011;8243;49.048;8.396;2023-07-13T11:06:11;3.47;;;1.70;;
16270;SDS011;8243;49.048;8.396;2023-07-13T11:16:38;4.07;;;1.60;;
16270;SDS011;8243;49.048;8.396;2023-07-13T11:21:33;2.47;;;1.50;;
16270;SDS011;8243;49.048;8.396;2023-07-13T11:24:13;5.17;;;2.00;;
16270;SDS011;8243;49.048;8.396;2023-07-13T11:26:41;2.67;;;1.80;;
16270;SDS011;8243;49.048;8.396;2023-07-13T11:29:08;2.97;;;1.53;;
16270;SDS011;8243;49.048;8.396;2023-07-13T11:31:53;2.63;;;1.70;;
16270;SDS011;8243;49.048;8.396;2023-07-13T11:34:22;3.37;;;1.50;;
16270;SDS011;8243;49.048;8.396;2023-07-13T11:36:53;9.50;;;1.60;;
16270;SDS011;8243;49.048;8.396;2023-07-13T11:39:24;2.47;;;1.50;;
16270;SDS011;8243;49.048;8.396;2023-07-13T11:41:56;2.80;;;1.60;;
16270;SDS011;8243;49.048;8.396;2023-07-13T11:44:26;2.90;;;1.43;;
16270;SDS011;8243;49.048;8.396;2023-07-13T11:46:54;2.83;;;1.30;;
16270;SDS011;8243;49.048;8.396;2023-07-13T11:49:22;2.50;;;1.50;;
16270;SDS011;8243;49.048;8.396;2023-07-13T11:51:50;3.87;;;1.53;;
16270;SDS011;8243;49.048;8.396;2023-07-13T11:56:51;3.90;;;1.60;;
16270;SDS011;8243;49.048;8.396;2023-07-13T11:59:18;3.23;;;1.60;;
16270;SDS011;8243;49.048;8.396;2023-07-13T12:01:44;6.40;;;1.70;;
16270;SDS011;8243;49.048;8.396;2023-07-13T12:04:21;3.13;;;1.30;;
16270;SDS011;8243;49.048;8.396;2023-07-13T12:06:54;4.27;;;1.67;;
16270;SDS011;8243;49.048;8.396;2023-07-13T12:09:29;2.30;;;1.57;;
16270;SDS011;8243;49.048;8.396;2023-07-13T12:11:56;2.77;;;1.53;;
16270;SDS011;8243;49.048;8.396;2023-07-13T12:14:22;4.53;;;1.60;;
16270;SDS011;8243;49.048;8.396;2023-07-13T12:16:50;4.53;;;1.50;;
16270;SDS011;8243;49.048;8.396;2023-07-13T12:19:25;3.43;;;1.80;;
16270;SDS011;8243;49.048;8.396;2023-07-13T12:21:53;3.97;;;1.87;;
16270;SDS011;8243;49.048;8.396;2023-07-13T12:24:21;5.03;;;1.50;;
16270;SDS011;8243;49.048;8.396;2023-07-13T12:26:58;3.80;;;1.53;;
16270;SDS011;8243;49.048;8.396;2023-07-13T12:29:26;4.83;;;1.80;;
16270;SDS011;8243;49.048;8.396;2023-07-13T12:31:52;2.70;;;1.47;;
16270;SDS011;8243;49.048;8.396;2023-07-13T12:34:19;2.63;;;1.30;;
16270;SDS011;8243;49.048;8.396;2023-07-13T12:36:53;2.80;;;1.53;;
16270;SDS011;8243;49.048;8.396;2023-07-13T12:39:33;2.27;;;1.43;;
16270;SDS011;8243;49.048;8.396;2023-07-13T12:42:20;4.30;;;1.63;;
16270;SDS011;8243;49.048;8.396;2023-07-13T12:44:54;2.47;;;1.40;;
16270;SDS011;8243;49.048;8.396;2023-07-13T12:47:23;3.77;;;1.60;;
16270;SDS011;8243;49.048;8.396;2023-07-13T12:49:50;1.70;;;1.40;;
16270;SDS011;8243;49.048;8.396;2023-07-13T12:52:21;2.50;;;1.27;;
16270;SDS011;8243;49.048;8.396;2023-07-13T12:54:59;3.43;;;1.33;;
16270;SDS011;8243;49.048;8.396;2023-07-13T13:00:24;4.90;;;1.43;;
16270;SDS011;8243;49.048;8.396;2023-07-13T13:03:04;3.17;;;1.50;;
16270;SDS011;8243;49.048;8.396;2023-07-13T13:05:56;4.70;;;1.40;;
16270;SDS011;8243;49.048;8.396;2023-07-13T13:08:24;3.13;;;1.50;;
16270;SDS011;8243;49.048;8.396;2023-07-13T13:10:50;1.17;;;1.00;;
16270;SDS011;8243;49.048;8.396;2023-07-13T13:13:15;2.60;;;1.20;;
16270;SDS011;8243;49.048;8.396;2023-07-13T13:15:41;2.30;;;1.43;;
16270;SDS011;8243;49.048;8.396;2023-07-13T13:18:14;3.53;;;1.60;;
16270;SDS011;8243;49.048;8.396;2023-07-13T13:20:42;5.00;;;1.40;;
16270;SDS011;8243;49.048;8.396;2023-07-13T13:23:17;1.70;;;1.23;;
16270;SDS011;8243;49.048;8.396;2023-07-13T13:25:44;1.87;;;1.33;;
16270;SDS011;8243;49.048;8.396;2023-07-13T13:28:15;2.13;;;1.20;;
16270;SDS011;8243;49.048;8.396;2023-07-13T13:30:44;4.00;;;1.43;;
16270;SDS011;8243;49.048;8.396;2023-07-13T13:33:11;3.77;;;1.40;;
16270;SDS011;8243;49.048;8.396;2023-07-13T13:35:39;2.10;;;1.60;;
16270;SDS011;8243;49.048;8.396;2023-07-13T13:38:12;4.80;;;1.70;;
16270;SDS011;8243;49.048;8.396;2023-07-13T13:40:42;5.70;;;1.30;;
16270;SDS011;8243;49.048;8.396;2023-07-13T13:43:16;3.73;;;1.40;;
16270;SDS011;8243;49.048;8.396;2023-07-13T13:45:43;2.77;;;1.73;;
16270;SDS011;8243;49.048;8.396;2023-07-13T13:48:16;2.50;;;1.30;;
16270;SDS011;8243;49.048;8.396;2023-07-13T13:50:44;1.97;;;1.40;;
16270;SDS011;8243;49.048;8.396;2023-07-13T13:53:10;1.90;;;1.33;;
16270;SDS011;8243;49.048;8.396;2023-07-13T13:55:38;2.10;;;1.40;;
16270;SDS011;8243;49.048;8.396;2023-07-13T13:58:06;1.50;;;1.33;;
16270;SDS011;8243;49.048;8.396;2023-07-13T14:00:33;2.67;;;1.37;;
16270;SDS011;8243;49.048;8.396;2023-07-13T14:02:58;2.37;;;1.30;;
16270;SDS011;8243;49.048;8.396;2023-07-13T14:05:24;3.30;;;1.50;;
16270;SDS011;8243;49.048;8.396;2023-07-13T14:07:51;2.73;;;1.60;;
16270;SDS011;8243;49.048;8.396;2023-07-13T14:10:18;2.00;;;1.20;;
16270;SDS011;8243;49.048;8.396;2023-07-13T14:12:48;2.93;;;1.43;;
16270;SDS011;8243;49.048;8.396;2023-07-13T14:15:18;2.07;;;1.30;;
16270;SDS011;8243;49.048;8.396;2023-07-13T14:17:53;3.10;;;1.30;;
16270;SDS011;8243;49.048;8.396;2023-07-13T14:20:20;2.03;;;1.30;;
16270;SDS011;8243;49.048;8.396;2023-07-13T14:22:48;2.33;;;1.10;;
16270;SDS011;8243;49.048;8.396;2023-07-13T14:25:16;2.37;;;1.53;;
16270;SDS011;8243;49.048;8.396;2023-07-13T14:27:43;2.30;;;1.40;;
16270;SDS011;8243;49.048;8.396;2023-07-13T14:32:39;2.67;;;1.63;;
16270;SDS011;8243;49.048;8.396;2023-07-13T14:35:05;2.87;;;1.40;;
16270;SDS011;8243;49.048;8.396;2023-07-13T14:37:31;4.20;;;1.20;;
16270;SDS011;8243;49.048;8.396;2023-07-13T14:39:57;3.87;;;1.37;;
16270;SDS011;8243;49.048;8.396;2023-07-13T14:42:22;5.40;;;1.60;;
16270;SDS011;8243;49.048;8.396;2023-07-13T14:44:48;2.63;;;1.40;;
16270;SDS011;8243;49.048;8.396;2023-07-13T14:47:13;3.03;;;1.30;;
16270;SDS011;8243;49.048;8.396;2023-07-13T14:49:39;4.53;;;1.60;;
16270;SDS011;8243;49.048;8.396;2023-07-13T14:52:13;3.03;;;1.50;;
16270;SDS011;8243;49.048;8.396;2023-07-13T14:54:47;2.97;;;1.40;;
16270;SDS011;8243;49.048;8.396;2023-07-13T14:57:14;1.50;;;1.33;;
16270;SDS011;8243;49.048;8.396;2023-07-13T14:59:44;3.20;;;1.40;;
16270;SDS011;8243;49.048;8.396;2023-07-13T15:04:52;2.07;;;1.40;;
16270;SDS011;8243;49.048;8.396;2023-07-13T15:07:19;4.20;;;1.40;;
16270;SDS011;8243;49.048;8.396;2023-07-13T15:09:46;2.23;;;1.40;;
16270;SDS011;8243;49.048;8.396;2023-07-13T15:12:12;3.13;;;1.70;;
16270;SDS011;8243;49.048;8.396;2023-07-13T15:14:38;2.70;;;1.30;;
16270;SDS011;8243;49.048;8.396;2023-07-13T15:17:04;3.07;;;1.30;;
16270;SDS011;8243;49.048;8.396;2023-07-13T15:19:30;3.20;;;1.60;;
16270;SDS011;8243;49.048;8.396;2023-07-13T15:21:56;2.50;;;1.40;;
16270;SDS011;8243;49.048;8.396;2023-07-13T15:24:22;1.57;;;1.23;;
16270;SDS011;8243;49.048;8.396;2023-07-13T15:26:49;2.97;;;1.50;;
16270;SDS011;8243;49.048;8.396;2023-07-13T15:29:15;5.10;;;1.60;;
16270;SDS011;8243;49.048;8.396;2023-07-13T15:31:42;2.20;;;1.30;;
16270;SDS011;8243;49.048;8.396;2023-07-13T15:34:12;3.77;;;1.43;;
16270;SDS011;8243;49.048;8.396;2023-07-13T15:36:41;2.27;;;1.30;;
16270;SDS011;8243;49.048;8.396;2023-07-13T15:39:08;3.20;;;1.40;;
16270;SDS011;8243;49.048;8.396;2023-07-13T15:41:40;2.53;;;1.50;;
16270;SDS011;8243;49.048;8.396;2023-07-13T15:44:20;2.40;;;1.40;;
16270;SDS011;8243;49.048;8.396;2023-07-13T15:46:51;6.07;;;1.83;;
16270;SDS011;8243;49.048;8.396;2023-07-13T15:49:17;1.30;;;1.20;;
16270;SDS011;8243;49.048;8.396;2023-07-13T15:51:42;1.90;;;1.53;;